createdAt,value
2018-08-28T00:02:45.956Z,76.60
2018-08-28T00:06:19.275Z,76.70
2018-08-28T00:09:52.508Z,76.70
2018-08-28T00:13:25.745Z,76.70
2018-08-28T00:16:59.027Z,76.50
2018-08-28T00:20:32.258Z,76.10
2018-08-28T00:24:05.509Z,75.70
2018-08-28T00:27:38.737Z,75.40
2018-08-28T00:31:11.960Z,75.60
2018-08-28T00:34:45.192Z,75.50
2018-08-28T00:38:18.408Z,75.40
2018-08-28T00:41:51.674Z,75.20
2018-08-28T00:45:24.904Z,74.90
2018-08-28T00:48:58.189Z,74.70
2018-08-28T00:52:31.383Z,74.70
2018-08-28T00:56:04.600Z,74.60
2018-08-28T00:59:37.833Z,74.40
2018-08-28T01:03:11.055Z,74.20
2018-08-28T01:06:44.290Z,74.10
2018-08-28T01:10:17.529Z,74.00
2018-08-28T01:13:50.769Z,74.00
2018-08-28T01:17:24.045Z,74.00
2018-08-28T01:20:57.264Z,74.00
2018-08-28T01:24:30.497Z,74.00
2018-08-28T01:28:03.772Z,73.80
2018-08-28T01:31:36.981Z,73.60
2018-08-28T01:35:10.211Z,73.40
2018-08-28T01:38:43.436Z,73.40
2018-08-28T01:42:21.812Z,73.80
2018-08-28T01:45:55.307Z,74.30
2018-08-28T01:49:28.535Z,75.10
2018-08-28T01:53:01.768Z,75.50
2018-08-28T01:56:34.972Z,75.90
2018-08-28T02:00:08.216Z,76.60
2018-08-28T02:03:41.429Z,77.20
2018-08-28T02:07:14.670Z,77.60
2018-08-28T02:10:47.886Z,77.70
2018-08-28T02:14:21.117Z,78.00
2018-08-28T02:17:54.330Z,78.30
2018-08-28T02:21:27.572Z,78.50
2018-08-28T02:25:00.808Z,78.60
2018-08-28T02:28:34.023Z,78.60
2018-08-28T02:32:07.244Z,78.80
2018-08-28T02:35:40.541Z,78.90
2018-08-28T02:39:13.834Z,79.20
2018-08-28T02:42:47.060Z,79.60
2018-08-28T02:46:20.263Z,80.00
2018-08-28T02:49:53.485Z,80.00
2018-08-28T02:53:26.712Z,80.20
2018-08-28T02:56:59.940Z,81.30
2018-08-28T03:00:33.151Z,80.70
2018-08-28T03:04:06.391Z,81.00
2018-08-28T03:07:39.613Z,81.30
2018-08-28T03:11:13.125Z,81.60
2018-08-28T03:14:46.341Z,81.90
2018-08-28T03:18:19.629Z,82.20
2018-08-28T03:21:52.852Z,82.60
2018-08-28T03:25:26.085Z,83.10
2018-08-28T03:28:59.329Z,83.50
2018-08-28T03:32:32.549Z,83.80
2018-08-28T03:36:05.816Z,84.00
2018-08-28T03:39:39.029Z,84.30
2018-08-28T03:43:12.248Z,84.40
2018-08-28T03:46:45.472Z,84.30
2018-08-28T03:50:18.684Z,84.10
2018-08-28T03:53:51.950Z,83.90
2018-08-28T03:57:25.147Z,83.70
2018-08-28T04:00:58.363Z,83.60
2018-08-28T04:04:31.575Z,83.80
2018-08-28T04:08:05.122Z,84.10
2018-08-28T04:11:38.345Z,85.20
2018-08-28T04:15:12.205Z,84.50
2018-08-28T04:18:45.428Z,84.80
2018-08-28T04:22:18.650Z,85.10
2018-08-28T04:25:52.172Z,85.20
2018-08-28T04:29:25.721Z,85.40
2018-08-28T04:32:59.472Z,85.70
2018-08-28T04:36:33.210Z,86.10
2018-08-28T04:40:07.425Z,86.40
2018-08-28T04:43:40.654Z,86.60
2018-08-28T04:47:14.173Z,86.60
2018-08-28T04:50:47.399Z,86.40
2018-08-28T04:54:20.638Z,86.10
2018-08-28T04:57:54.094Z,85.50
2018-08-28T05:01:28.010Z,84.70
2018-08-28T05:05:01.703Z,84.30
2018-08-28T05:08:34.960Z,84.10
2018-08-28T05:12:08.212Z,84.20
2018-08-28T05:15:41.440Z,84.40
2018-08-28T05:19:14.750Z,84.60
2018-08-28T05:22:48.060Z,84.50
2018-08-28T05:26:21.281Z,84.60
2018-08-28T05:29:54.517Z,84.70
2018-08-28T05:33:27.727Z,85.10
2018-08-28T05:37:00.952Z,85.40
2018-08-28T05:40:34.192Z,85.80
2018-08-28T05:44:07.421Z,85.90
2018-08-28T05:47:40.629Z,87.10
2018-08-28T05:51:13.903Z,86.30
2018-08-28T05:54:47.145Z,86.40
2018-08-28T05:58:20.378Z,86.50
2018-08-28T06:01:53.618Z,86.30
2018-08-28T06:05:26.867Z,86.20
2018-08-28T06:09:00.151Z,85.70
2018-08-28T06:12:33.412Z,85.20
2018-08-28T06:16:06.655Z,84.70
2018-08-28T06:19:39.879Z,83.50
2018-08-28T06:23:13.306Z,82.40
2018-08-28T06:26:46.376Z,82.30
2018-08-28T06:30:19.628Z,82.20
2018-08-28T06:33:52.858Z,82.10
2018-08-28T06:37:26.097Z,81.40
2018-08-28T06:40:59.352Z,80.40
2018-08-28T06:44:32.592Z,79.40
2018-08-28T06:48:05.851Z,78.70
2018-08-28T06:51:39.077Z,78.50
2018-08-28T06:55:12.328Z,78.10
2018-08-28T06:58:45.558Z,77.70
2018-08-28T07:02:18.788Z,76.70
2018-08-28T07:05:52.029Z,76.40
2018-08-28T07:09:25.256Z,75.40
2018-08-28T07:12:58.504Z,75.10
2018-08-28T07:16:31.729Z,75.00
2018-08-28T07:20:05.263Z,74.70
2018-08-28T07:23:38.505Z,74.50
2018-08-28T07:27:11.740Z,73.90
2018-08-28T07:30:45.328Z,73.20
2018-08-28T07:34:18.555Z,72.50
2018-08-28T07:37:51.811Z,71.80
2018-08-28T07:41:25.052Z,69.00
2018-08-28T07:44:58.293Z,65.70
2018-08-28T07:48:31.583Z,64.40
2018-08-28T07:52:04.767Z,63.20
2018-08-28T07:55:37.986Z,62.30
2018-08-28T07:59:11.414Z,62.50
2018-08-28T08:02:44.656Z,62.80
2018-08-28T08:06:17.892Z,62.70
2018-08-28T08:09:51.116Z,61.60
2018-08-28T08:13:24.356Z,60.90
2018-08-28T08:16:58.463Z,59.00
2018-08-28T08:20:31.696Z,58.50
2018-08-28T08:24:04.935Z,57.90
2018-08-28T08:27:38.164Z,57.60
2018-08-28T08:31:11.392Z,57.10
2018-08-28T08:34:44.632Z,57.00
2018-08-28T08:38:17.876Z,57.00
2018-08-28T08:41:51.102Z,56.90
2018-08-28T08:45:24.341Z,56.60
2018-08-28T08:48:57.572Z,56.40
2018-08-28T08:52:30.798Z,54.90
2018-08-28T08:56:04.047Z,53.80
2018-08-28T08:59:37.268Z,53.10
2018-08-28T09:03:10.523Z,53.10
2018-08-28T09:06:44.032Z,53.20
2018-08-28T09:10:17.237Z,53.20
2018-08-28T09:13:50.483Z,53.00
2018-08-28T09:17:23.703Z,52.10
2018-08-28T09:20:56.935Z,52.00
2018-08-28T09:24:30.161Z,52.60
2018-08-28T09:28:03.389Z,52.60
2018-08-28T09:31:36.631Z,52.10
2018-08-28T09:35:09.864Z,50.60
2018-08-28T09:38:43.173Z,49.30
2018-08-28T09:42:16.351Z,49.00
2018-08-28T09:45:49.572Z,48.70
2018-08-28T09:49:22.788Z,48.20
2018-08-28T09:52:56.031Z,48.00
2018-08-28T09:56:29.346Z,47.40
2018-08-28T10:00:02.540Z,47.10
2018-08-28T10:03:35.769Z,48.20
2018-08-28T10:07:08.991Z,47.90
2018-08-28T10:10:42.235Z,47.70
2018-08-28T10:14:15.465Z,47.50
2018-08-28T10:17:48.700Z,47.60
2018-08-28T10:21:21.917Z,47.50
2018-08-28T10:24:55.136Z,48.20
2018-08-28T10:28:28.372Z,46.80
2018-08-28T10:32:01.608Z,46.00
2018-08-28T10:35:34.855Z,45.50
2018-08-28T10:39:09.145Z,45.40
2018-08-28T10:42:42.390Z,45.20
2018-08-28T10:46:15.619Z,45.10
2018-08-28T10:49:48.867Z,44.50
2018-08-28T10:53:22.097Z,44.00
2018-08-28T10:56:55.309Z,43.50
2018-08-28T11:00:28.535Z,43.70
2018-08-28T11:04:01.847Z,43.70
2018-08-28T11:07:35.088Z,43.70
2018-08-28T11:11:08.328Z,43.40
2018-08-28T11:14:41.624Z,43.40
2018-08-28T11:18:14.852Z,43.30
2018-08-28T11:21:48.077Z,43.30
2018-08-28T11:25:21.321Z,43.20
2018-08-28T11:28:54.556Z,43.00
2018-08-28T11:32:27.788Z,42.60
2018-08-28T11:36:01.014Z,42.80
2018-08-28T11:39:34.263Z,42.70
2018-08-28T11:43:07.492Z,42.60
2018-08-28T11:46:40.733Z,42.70
2018-08-28T11:50:13.952Z,42.30
2018-08-28T11:53:47.176Z,42.20
2018-08-28T11:57:20.433Z,41.80
2018-08-28T12:00:53.676Z,42.50
2018-08-28T12:04:26.920Z,41.70
2018-08-28T12:08:00.153Z,41.10
2018-08-28T12:11:33.389Z,41.00
2018-08-28T12:15:06.958Z,40.90
2018-08-28T12:18:40.196Z,40.70
2018-08-28T12:22:13.419Z,40.60
2018-08-28T12:25:46.659Z,40.30
2018-08-28T12:29:19.904Z,39.90
2018-08-28T12:32:53.131Z,39.80
2018-08-28T12:36:26.400Z,39.90
2018-08-28T12:39:59.661Z,40.00
2018-08-28T12:43:32.889Z,39.90
2018-08-28T12:47:06.127Z,39.70
2018-08-28T12:50:39.373Z,39.70
2018-08-28T12:54:12.594Z,39.80
2018-08-28T12:57:45.839Z,39.80
2018-08-28T13:01:19.079Z,39.80
2018-08-28T13:04:52.303Z,39.40
2018-08-28T13:08:25.542Z,39.20
2018-08-28T13:11:58.760Z,39.20
2018-08-28T13:15:32.008Z,39.00
2018-08-28T13:19:05.384Z,39.20
2018-08-28T13:22:38.612Z,39.50
2018-08-28T13:26:11.983Z,39.40
2018-08-28T13:29:45.083Z,39.30
2018-08-28T13:33:18.328Z,39.20
2018-08-28T13:36:51.578Z,39.10
2018-08-28T13:40:24.953Z,38.90
2018-08-28T13:43:58.068Z,38.70
2018-08-28T13:47:31.393Z,38.50
2018-08-28T13:51:04.636Z,38.20
2018-08-28T13:54:37.876Z,37.90
2018-08-28T13:58:11.098Z,37.30
2018-08-28T14:01:44.341Z,37.10
2018-08-28T14:05:17.579Z,37.10
2018-08-28T14:08:50.860Z,36.50
2018-08-28T14:12:24.330Z,36.20
2018-08-28T14:15:57.576Z,35.90
2018-08-28T14:19:30.823Z,36.00
2018-08-28T14:23:04.053Z,36.50
2018-08-28T14:26:37.280Z,35.50
2018-08-28T14:30:10.533Z,34.60
2018-08-28T14:33:43.779Z,33.90
2018-08-28T14:37:17.030Z,33.40
2018-08-28T14:40:50.292Z,33.30
2018-08-28T14:44:23.536Z,33.90
2018-08-28T14:47:56.777Z,34.10
2018-08-28T14:51:30.019Z,33.90
2018-08-28T14:55:03.257Z,33.70
2018-08-28T14:58:36.492Z,33.60
2018-08-28T15:02:09.728Z,33.00
2018-08-28T15:05:42.970Z,32.80
2018-08-28T15:09:16.227Z,32.60
2018-08-28T15:12:49.477Z,32.80
2018-08-28T15:16:22.769Z,32.60
2018-08-28T15:19:55.997Z,32.60
2018-08-28T15:23:29.539Z,32.30
2018-08-28T15:27:02.819Z,32.50
2018-08-28T15:30:36.055Z,32.30
2018-08-28T15:34:09.530Z,32.10
2018-08-28T15:37:42.768Z,31.80
2018-08-28T15:41:16.000Z,31.60
2018-08-28T15:44:49.236Z,31.20
2018-08-28T15:48:22.449Z,31.00
2018-08-28T15:51:55.674Z,30.80
2018-08-28T15:55:28.928Z,30.80
2018-08-28T15:59:02.185Z,30.70
2018-08-28T16:02:35.421Z,30.60
2018-08-28T16:06:08.645Z,30.40
2018-08-28T16:09:41.877Z,30.00
2018-08-28T16:13:15.115Z,30.10
2018-08-28T16:16:48.359Z,30.10
2018-08-28T16:20:21.584Z,30.70
2018-08-28T16:23:54.816Z,31.40
2018-08-28T16:27:28.071Z,31.90
2018-08-28T16:31:01.315Z,32.40
2018-08-28T16:34:34.541Z,33.10
2018-08-28T16:38:07.781Z,33.40
2018-08-28T16:41:41.013Z,33.70
2018-08-28T16:45:14.239Z,34.20
2018-08-28T16:48:47.453Z,34.50
2018-08-28T16:52:20.692Z,34.80
2018-08-28T16:55:53.974Z,34.90
2018-08-28T16:59:27.179Z,35.10
2018-08-28T17:03:00.416Z,35.40
2018-08-28T17:06:33.637Z,35.40
2018-08-28T17:10:06.894Z,35.70
2018-08-28T17:13:40.137Z,35.90
2018-08-28T17:17:13.383Z,36.00
2018-08-28T17:20:46.607Z,36.10
2018-08-28T17:24:19.845Z,36.10
2018-08-28T17:27:53.074Z,36.30
2018-08-28T17:31:26.309Z,36.30
2018-08-28T17:34:59.548Z,36.40
2018-08-28T17:38:32.789Z,36.20
2018-08-28T17:42:06.019Z,36.20
2018-08-28T17:45:39.340Z,36.40
2018-08-28T17:49:12.642Z,36.50
2018-08-28T17:52:45.813Z,36.80
2018-08-28T17:56:19.053Z,37.30
2018-08-28T17:59:52.344Z,37.70
2018-08-28T18:03:25.561Z,38.10
2018-08-28T18:06:58.798Z,38.40
2018-08-28T18:10:32.061Z,38.70
2018-08-28T18:14:05.341Z,38.70
2018-08-28T18:17:38.551Z,39.00
2018-08-28T18:21:11.785Z,39.20
2018-08-28T18:24:45.007Z,39.40
2018-08-28T18:28:18.258Z,39.60
2018-08-28T18:31:51.528Z,39.90
2018-08-28T18:35:24.744Z,40.10
2018-08-28T18:38:57.983Z,40.50
2018-08-28T18:42:31.220Z,40.70
2018-08-28T18:46:04.491Z,40.90
2018-08-28T18:49:37.727Z,41.10
2018-08-28T18:53:10.948Z,41.40
2018-08-28T18:56:44.181Z,41.50
2018-08-28T19:00:17.420Z,41.60
2018-08-28T19:03:50.643Z,41.90
2018-08-28T19:07:23.870Z,42.20
2018-08-28T19:10:57.107Z,42.30
2018-08-28T19:14:30.349Z,42.40
2018-08-28T19:18:03.672Z,42.60
2018-08-28T19:21:36.897Z,42.70
2018-08-28T19:25:10.615Z,42.90
2018-08-28T19:28:43.855Z,43.20
2018-08-28T19:32:17.101Z,43.30
2018-08-28T19:35:50.374Z,43.40
2018-08-28T19:39:24.184Z,43.60
2018-08-28T19:42:58.036Z,44.00
2018-08-28T19:46:31.271Z,44.10
2018-08-28T19:50:04.758Z,44.20
2018-08-28T19:53:38.018Z,44.30
2018-08-28T19:57:11.256Z,44.70
2018-08-28T20:00:45.225Z,45.00
2018-08-28T20:04:18.706Z,45.30
2018-08-28T20:07:51.944Z,45.50
2018-08-28T20:11:25.215Z,46.00
2018-08-28T20:14:58.606Z,46.50
2018-08-28T20:18:31.902Z,47.00
2018-08-28T20:22:07.332Z,47.30
2018-08-28T20:25:40.771Z,47.70
2018-08-28T20:29:14.217Z,48.10
2018-08-28T20:32:47.744Z,48.30
2018-08-28T20:36:21.268Z,48.20
2018-08-28T20:39:54.656Z,48.00
2018-08-28T20:43:27.894Z,48.10
2018-08-28T20:47:01.192Z,48.30
2018-08-28T20:50:34.463Z,48.50
2018-08-28T20:54:07.721Z,49.20
2018-08-28T20:57:40.969Z,49.60
2018-08-28T21:01:14.280Z,50.00
2018-08-28T21:04:47.596Z,50.60
2018-08-28T21:08:20.952Z,50.90
2018-08-28T21:11:54.209Z,50.50
2018-08-28T21:15:27.476Z,51.20
2018-08-28T21:19:00.719Z,51.30
2018-08-28T21:22:33.951Z,51.50
2018-08-28T21:26:07.257Z,51.40
2018-08-28T21:29:40.519Z,51.60
2018-08-28T21:33:13.760Z,51.50
2018-08-28T21:36:47.017Z,51.40
2018-08-28T21:40:20.263Z,51.40
2018-08-28T21:43:53.501Z,51.40
2018-08-28T21:47:26.744Z,51.60
2018-08-28T21:51:00.150Z,51.70
2018-08-28T21:54:33.417Z,51.70
2018-08-28T21:58:06.680Z,51.80
2018-08-28T22:01:39.912Z,51.80
2018-08-28T22:05:13.175Z,52.10
2018-08-28T22:08:46.417Z,52.20
2018-08-28T22:12:19.644Z,52.30
2018-08-28T22:15:52.916Z,52.10
2018-08-28T22:19:26.136Z,52.30
2018-08-28T22:22:59.373Z,52.30
2018-08-28T22:26:32.605Z,52.50
2018-08-28T22:30:06.831Z,52.60
2018-08-28T22:33:40.063Z,52.80
2018-08-28T22:37:13.316Z,53.20
2018-08-28T22:40:46.571Z,53.60
2018-08-28T22:44:19.811Z,53.90
2018-08-28T22:47:53.049Z,54.20
2018-08-28T22:51:26.258Z,54.60
2018-08-28T22:54:59.498Z,55.40
2018-08-28T22:58:32.732Z,54.90
2018-08-28T23:02:06.067Z,55.10
2018-08-28T23:05:39.305Z,55.00
2018-08-28T23:09:12.545Z,55.00
2018-08-28T23:12:45.776Z,54.90
2018-08-28T23:16:19.030Z,55.10
2018-08-28T23:19:52.259Z,55.20
2018-08-28T23:23:25.491Z,55.10
2018-08-28T23:26:58.723Z,55.10
2018-08-28T23:30:31.958Z,55.10
2018-08-28T23:34:05.197Z,55.00
2018-08-28T23:37:38.453Z,55.40
2018-08-28T23:41:11.696Z,56.10
2018-08-28T23:44:44.933Z,56.50
2018-08-28T23:48:18.184Z,56.80
2018-08-28T23:51:51.433Z,57.00
2018-08-28T23:55:24.659Z,57.20
2018-08-28T23:58:57.897Z,57.40
